Time;durP1;ratioP1;P1;durP2;ratioP2;P2;SDS_P1;SDS_P2;PMS_P1;PMS_P2;Temp;Humidity;BMP_temperature;BMP_pressure;BME280_temperature;BME280_humidity;BME280_pressure;Samples;Min_cycle;Max_cycle;Signal;HPM_P1;HPM_P2
2022/05/04 00:00:44;;;;;;;126.63;25.17;;;;;;;;;;4946794;28;20916;-68
2022/05/04 00:03:11;;;;;;;104.95;21.17;;;;;;;;;;4948634;28;20305;-69
2022/05/04 00:05:37;;;;;;;98.10;19.17;;;;;;;;;;4957451;28;20332;-68
2022/05/04 00:08:03;;;;;;;74.47;15.47;;;;;;;;;;4956114;28;20217;-68
2022/05/04 00:10:30;;;;;;;45.97;9.70;;;;;;;;;;4954485;28;20264;-68
2022/05/04 00:12:56;;;;;;;79.68;15.73;;;;;;;;;;4951931;28;20799;-68
2022/05/04 00:15:22;;;;;;;71.43;13.63;;;;;;;;;;4957102;28;20236;-68
2022/05/04 00:17:48;;;;;;;105.93;20.83;;;;;;;;;;4961278;28;20206;-68
2022/05/04 00:20:13;;;;;;;41.17;8.73;;;;;;;;;;4954310;28;20238;-68
2022/05/04 00:22:39;;;;;;;121.57;23.87;;;;;;;;;;4950743;28;20248;-68
2022/05/04 00:25:06;;;;;;;95.83;19.63;;;;;;;;;;4958386;28;20217;-69
2022/05/04 00:27:33;;;;;;;88.10;17.20;;;;;;;;;;4954169;28;20194;-68
2022/05/04 00:29:58;;;;;;;158.53;31.73;;;;;;;;;;4940412;28;20210;-68
2022/05/04 00:32:24;;;;;;;94.60;18.83;;;;;;;;;;4956767;28;20576;-69
2022/05/04 00:34:50;;;;;;;98.07;20.20;;;;;;;;;;4953736;28;20876;-68
2022/05/04 00:37:16;;;;;;;61.63;13.90;;;;;;;;;;4955316;28;20265;-69
2022/05/04 00:39:42;;;;;;;64.93;14.30;;;;;;;;;;4964744;28;20712;-68
2022/05/04 00:42:09;;;;;;;99.47;21.43;;;;;;;;;;4957936;28;20235;-68
2022/05/04 00:44:35;;;;;;;118.60;24.13;;;;;;;;;;4952759;28;20222;-68
2022/05/04 00:47:01;;;;;;;88.00;19.50;;;;;;;;;;4953558;28;21568;-68
2022/05/04 00:49:27;;;;;;;84.03;17.40;;;;;;;;;;4949377;28;20301;-68
2022/05/04 00:51:53;;;;;;;80.87;17.00;;;;;;;;;;4957837;28;20723;-68
2022/05/04 00:54:19;;;;;;;79.60;16.07;;;;;;;;;;4949063;28;20224;-68
2022/05/04 00:56:45;;;;;;;90.43;18.47;;;;;;;;;;4958242;28;20229;-69
2022/05/04 00:59:11;;;;;;;137.43;28.00;;;;;;;;;;4958401;28;20217;-68
2022/05/04 01:01:38;;;;;;;84.17;16.87;;;;;;;;;;4958305;28;20310;-68
2022/05/04 01:04:04;;;;;;;116.13;24.70;;;;;;;;;;4956570;28;20194;-68
2022/05/04 01:06:30;;;;;;;113.90;23.03;;;;;;;;;;4962172;28;20217;-68
2022/05/04 01:08:56;;;;;;;122.37;26.73;;;;;;;;;;4957710;28;20682;-68
2022/05/04 01:11:22;;;;;;;123.53;24.83;;;;;;;;;;4954546;28;20273;-68
2022/05/04 01:14:04;;;;;;;63.47;13.07;;;;;;;;;;4957573;28;20699;-68
2022/05/04 01:16:31;;;;;;;126.97;25.50;;;;;;;;;;4954772;28;20720;-68
2022/05/04 01:18:57;;;;;;;78.07;18.47;;;;;;;;;;4958840;28;20521;-68
2022/05/04 01:21:23;;;;;;;129.93;27.47;;;;;;;;;;4956386;28;20233;-68
2022/05/04 01:23:49;;;;;;;76.07;16.73;;;;;;;;;;4956703;28;20247;-68
2022/05/04 01:26:18;;;;;;;79.60;17.47;;;;;;;;;;4954442;28;20688;-68
2022/05/04 01:28:45;;;;;;;78.37;16.80;;;;;;;;;;4959975;28;20217;-68
2022/05/04 01:31:11;;;;;;;83.10;18.13;;;;;;;;;;4958700;28;20187;-68
2022/05/04 01:33:37;;;;;;;100.60;22.60;;;;;;;;;;4953434;28;20225;-68
2022/05/04 01:36:03;;;;;;;102.10;25.63;;;;;;;;;;4955969;28;20230;-68
2022/05/04 01:38:29;;;;;;;113.40;28.47;;;;;;;;;;4951909;28;20350;-68
2022/05/04 01:40:55;;;;;;;72.63;18.23;;;;;;;;;;4949624;28;20211;-68
2022/05/04 01:43:21;;;;;;;65.07;16.70;;;;;;;;;;4950816;28;20227;-68
2022/05/04 01:45:46;;;;;;;73.50;19.13;;;;;;;;;;4958923;28;20186;-68
2022/05/04 01:48:12;;;;;;;69.17;17.10;;;;;;;;;;4957257;28;20697;-68
2022/05/04 01:50:38;;;;;;;75.82;21.60;;;;;;;;;;4953547;28;20289;-68
2022/05/04 01:53:05;;;;;;;238.33;110.80;;;;;;;;;;4932522;28;20219;-69
2022/05/04 01:55:34;;;;;;;162.50;37.53;;;;;;;;;;4954980;28;20237;-68
2022/05/04 01:58:00;;;;;;;95.07;24.50;;;;;;;;;;4936138;28;20633;-68
2022/05/04 02:00:26;;;;;;;83.53;18.73;;;;;;;;;;4952271;28;20187;-68
2022/05/04 02:02:53;;;;;;;88.40;20.27;;;;;;;;;;4948011;28;20222;-68
2022/05/04 02:05:19;;;;;;;76.73;17.70;;;;;;;;;;4952271;28;20224;-69
2022/05/04 02:07:45;;;;;;;43.40;10.63;;;;;;;;;;4961180;28;20310;-68
2022/05/04 02:10:12;;;;;;;141.63;33.07;;;;;;;;;;4946956;28;23214;-68
2022/05/04 02:12:38;;;;;;;85.83;20.47;;;;;;;;;;4961254;28;20202;-68
2022/05/04 02:15:08;;;;;;;124.13;29.03;;;;;;;;;;4955548;28;20250;-68
2022/05/04 02:17:34;;;;;;;124.03;27.37;;;;;;;;;;4955014;28;20213;-68
2022/05/04 02:20:00;;;;;;;78.97;20.43;;;;;;;;;;4934235;28;20629;-68
2022/05/04 02:22:26;;;;;;;76.67;17.20;;;;;;;;;;4954456;28;20696;-68
2022/05/04 02:24:53;;;;;;;64.17;14.93;;;;;;;;;;4952450;28;20198;-68
2022/05/04 02:27:19;;;;;;;62.43;14.50;;;;;;;;;;4953408;28;20222;-68
2022/05/04 02:29:45;;;;;;;85.33;18.70;;;;;;;;;;4961640;28;20210;-68
2022/05/04 02:32:11;;;;;;;123.10;27.73;;;;;;;;;;4949651;28;20214;-68
2022/05/04 02:37:54;;;;;;;100.90;22.60;;;;;;;;;;4948653;28;20277;-68
2022/05/04 02:40:08;;;;;;;99.63;22.23;;;;;;;;;;4955349;28;20245;-68
2022/05/04 02:42:34;;;;;;;87.50;17.97;;;;;;;;;;4947864;28;20209;-68
2022/05/04 02:45:01;;;;;;;128.67;28.60;;;;;;;;;;4953669;28;20227;-68
2022/05/04 02:47:28;;;;;;;149.30;31.47;;;;;;;;;;4945312;28;20265;-69
2022/05/04 02:49:54;;;;;;;104.87;22.30;;;;;;;;;;4956812;28;20206;-69
2022/05/04 02:52:19;;;;;;;100.67;20.37;;;;;;;;;;4948576;28;20234;-68
2022/05/04 02:54:45;;;;;;;186.07;38.13;;;;;;;;;;4949156;28;20209;-68
2022/05/04 02:57:11;;;;;;;86.77;18.90;;;;;;;;;;4956401;28;20214;-68
2022/05/04 02:59:37;;;;;;;87.93;18.03;;;;;;;;;;4950211;28;20222;-68
2022/05/04 03:04:48;;;;;;;100.73;21.50;;;;;;;;;;4953260;28;20220;-68
2022/05/04 03:07:14;;;;;;;99.90;21.03;;;;;;;;;;4953673;28;20195;-68
2022/05/04 03:09:40;;;;;;;110.40;22.93;;;;;;;;;;4953812;28;20770;-68
2022/05/04 03:12:06;;;;;;;136.43;28.33;;;;;;;;;;4953944;28;20217;-68
2022/05/04 03:14:32;;;;;;;169.73;34.53;;;;;;;;;;4954201;28;20725;-68
2022/05/04 03:16:58;;;;;;;77.47;16.50;;;;;;;;;;4947579;28;20223;-69
2022/05/04 03:19:24;;;;;;;66.73;14.30;;;;;;;;;;4953917;28;20229;-68
2022/05/04 03:21:51;;;;;;;74.13;15.83;;;;;;;;;;4956439;28;20287;-69
2022/05/04 03:24:17;;;;;;;89.43;19.43;;;;;;;;;;4956703;28;20223;-69
2022/05/04 03:26:43;;;;;;;27.33;6.53;;;;;;;;;;4957333;28;20222;-68
2022/05/04 03:29:09;;;;;;;97.73;20.67;;;;;;;;;;4954767;28;20214;-68
2022/05/04 03:31:35;;;;;;;49.80;10.87;;;;;;;;;;4940957;28;20314;-68
2022/05/04 03:34:01;;;;;;;85.43;20.37;;;;;;;;;;4962988;28;20265;-68
2022/05/04 03:36:27;;;;;;;90.23;19.53;;;;;;;;;;4955019;28;20960;-68
2022/05/04 03:38:53;;;;;;;46.27;10.37;;;;;;;;;;4962055;28;20726;-68
2022/05/04 03:41:20;;;;;;;104.30;22.03;;;;;;;;;;4954678;28;20245;-68
2022/05/04 03:43:46;;;;;;;68.30;15.33;;;;;;;;;;4937972;28;20213;-68
2022/05/04 03:46:19;;;;;;;53.67;11.93;;;;;;;;;;4956070;28;20191;-68
2022/05/04 03:48:47;;;;;;;75.30;16.47;;;;;;;;;;4953636;28;20207;-68
2022/05/04 03:51:19;;;;;;;55.70;12.23;;;;;;;;;;4961924;28;20281;-68
2022/05/04 03:53:45;;;;;;;92.57;20.13;;;;;;;;;;4954694;28;20434;-68
2022/05/04 03:56:11;;;;;;;82.73;17.67;;;;;;;;;;4963857;28;20222;-68
2022/05/04 03:58:37;;;;;;;121.03;25.00;;;;;;;;;;4955156;28;20225;-68
2022/05/04 04:01:03;;;;;;;75.60;17.83;;;;;;;;;;4959231;28;20197;-68
2022/05/04 04:03:29;;;;;;;88.20;19.30;;;;;;;;;;4962352;28;20232;-68
2022/05/04 04:05:55;;;;;;;52.97;12.70;;;;;;;;;;4966108;28;20210;-68
2022/05/04 04:08:21;;;;;;;55.50;12.60;;;;;;;;;;4962237;28;21921;-68
2022/05/04 04:10:47;;;;;;;75.73;16.03;;;;;;;;;;4963493;28;20210;-68
2022/05/04 04:13:14;;;;;;;65.97;15.27;;;;;;;;;;4961503;28;20301;-68
2022/05/04 04:15:39;;;;;;;88.77;18.70;;;;;;;;;;4961583;28;20791;-68
2022/05/04 04:18:05;;;;;;;130.37;28.80;;;;;;;;;;4957625;28;20340;-68
2022/05/04 04:23:16;;;;;;;96.63;20.33;;;;;;;;;;4952825;28;20225;-68
2022/05/04 04:25:42;;;;;;;50.27;11.47;;;;;;;;;;4959906;28;20218;-68
2022/05/04 04:28:09;;;;;;;75.13;16.83;;;;;;;;;;4960668;28;20182;-68
2022/05/04 04:30:36;;;;;;;78.00;16.93;;;;;;;;;;4957577;28;20261;-68
2022/05/04 04:33:02;;;;;;;156.87;35.70;;;;;;;;;;4954564;28;20711;-68
2022/05/04 04:35:28;;;;;;;117.67;24.87;;;;;;;;;;4957958;28;20246;-68
2022/05/04 04:37:54;;;;;;;51.70;11.50;;;;;;;;;;4957563;28;20616;-68
2022/05/04 04:40:20;;;;;;;64.43;14.13;;;;;;;;;;4961308;28;20221;-68
2022/05/04 04:42:46;;;;;;;133.70;29.93;;;;;;;;;;4952895;28;20202;-68
2022/05/04 04:45:12;;;;;;;134.90;29.63;;;;;;;;;;4938684;28;20269;-68
2022/05/04 04:47:38;;;;;;;41.30;9.80;;;;;;;;;;4958835;28;20219;-68
2022/05/04 04:50:04;;;;;;;86.73;19.80;;;;;;;;;;4961484;28;20222;-69
2022/05/04 04:52:30;;;;;;;85.77;18.60;;;;;;;;;;4947371;28;20221;-68
2022/05/04 04:54:56;;;;;;;108.30;23.67;;;;;;;;;;4939404;28;20253;-68
2022/05/04 04:57:22;;;;;;;119.77;25.70;;;;;;;;;;4955395;28;20210;-71
2022/05/04 04:59:49;;;;;;;81.77;18.83;;;;;;;;;;4964005;28;20214;-68
2022/05/04 05:02:15;;;;;;;71.37;16.30;;;;;;;;;;4959283;28;20226;-68
2022/05/04 05:04:41;;;;;;;91.63;20.30;;;;;;;;;;4944409;28;20217;-68
2022/05/04 05:07:07;;;;;;;124.27;29.33;;;;;;;;;;4958005;28;20197;-68
2022/05/04 05:09:33;;;;;;;71.27;16.37;;;;;;;;;;4964742;28;20448;-68
2022/05/04 05:11:59;;;;;;;145.17;34.07;;;;;;;;;;4960906;28;20829;-68
2022/05/04 05:17:09;;;;;;;108.23;26.17;;;;;;;;;;4954784;28;20370;-68
2022/05/04 05:19:35;;;;;;;37.07;9.63;;;;;;;;;;4947619;28;20333;-69
2022/05/04 05:22:02;;;;;;;143.90;35.33;;;;;;;;;;4961299;28;20202;-70
2022/05/04 05:24:27;;;;;;;102.77;23.63;;;;;;;;;;4946250;28;20309;-67
2022/05/04 05:26:53;;;;;;;49.50;12.50;;;;;;;;;;4939174;28;20994;-65
2022/05/04 05:29:19;;;;;;;175.27;42.37;;;;;;;;;;4939305;28;20249;-65
2022/05/04 05:31:45;;;;;;;82.57;21.10;;;;;;;;;;4955025;28;20218;-66
2022/05/04 05:34:11;;;;;;;230.43;61.10;;;;;;;;;;4946962;28;20218;-65
2022/05/04 05:36:37;;;;;;;110.83;27.47;;;;;;;;;;4955168;28;20306;-66
2022/05/04 05:39:03;;;;;;;110.63;29.53;;;;;;;;;;4960012;28;20693;-66
2022/05/04 05:41:29;;;;;;;83.95;20.65;;;;;;;;;;4960147;28;20214;-65
2022/05/04 05:43:55;;;;;;;94.22;23.70;;;;;;;;;;4946270;28;20245;-66
2022/05/04 05:46:21;;;;;;;95.72;24.58;;;;;;;;;;4962115;28;20238;-66
2022/05/04 05:48:47;;;;;;;85.35;22.13;;;;;;;;;;4961109;28;20561;-65
2022/05/04 05:51:13;;;;;;;75.90;19.73;;;;;;;;;;4953585;28;20249;-65
2022/05/04 05:53:39;;;;;;;105.95;26.30;;;;;;;;;;4955469;28;20272;-66
2022/05/04 05:56:06;;;;;;;91.18;25.75;;;;;;;;;;4956947;28;20253;-65
2022/05/04 05:58:32;;;;;;;132.82;33.20;;;;;;;;;;4952930;28;20708;-65
2022/05/04 06:00:58;;;;;;;220.20;59.90;;;;;;;;;;4934913;28;20182;-65
2022/05/04 06:03:24;;;;;;;86.78;22.77;;;;;;;;;;4946805;28;20637;-65
2022/05/04 06:05:50;;;;;;;115.90;30.50;;;;;;;;;;4961032;28;20217;-66
2022/05/04 06:08:16;;;;;;;161.98;46.45;;;;;;;;;;4952270;28;20214;-65
2022/05/04 06:10:42;;;;;;;90.40;23.43;;;;;;;;;;4955864;28;20222;-66
2022/05/04 06:13:08;;;;;;;127.32;33.30;;;;;;;;;;4954907;28;20218;-67
2022/05/04 06:15:34;;;;;;;80.40;22.10;;;;;;;;;;4952809;28;20206;-70
2022/05/04 06:18:01;;;;;;;100.57;29.45;;;;;;;;;;4952100;28;20210;-70
2022/05/04 06:20:27;;;;;;;114.35;31.02;;;;;;;;;;4948984;28;20238;-77
2022/05/04 06:22:53;;;;;;;64.32;18.08;;;;;;;;;;4955654;28;20269;-70
2022/05/04 06:25:19;;;;;;;101.20;27.15;;;;;;;;;;4956618;28;20869;-71
2022/05/04 06:27:45;;;;;;;65.88;17.48;;;;;;;;;;4956044;28;20186;-70
2022/05/04 06:35:41;;;;;;;117.72;34.65;;;;;;;;;;4954423;28;20228;-77
2022/05/04 06:38:06;;;;;;;101.90;28.02;;;;;;;;;;4947518;28;20218;-69
2022/05/04 06:40:32;;;;;;;97.03;25.52;;;;;;;;;;4960046;28;20305;-70
2022/05/04 06:42:59;;;;;;;134.23;39.35;;;;;;;;;;4950847;28;20662;-71
2022/05/04 06:45:25;;;;;;;45.92;12.85;;;;;;;;;;4965092;28;20256;-69
2022/05/04 06:47:51;;;;;;;87.75;22.98;;;;;;;;;;4963083;28;20218;-70
2022/05/04 06:50:17;;;;;;;94.57;23.98;;;;;;;;;;4952172;28;20249;-70
2022/05/04 06:52:43;;;;;;;95.85;24.30;;;;;;;;;;4955885;28;20218;-72
2022/05/04 06:55:09;;;;;;;127.43;32.80;;;;;;;;;;4959542;28;20178;-69
2022/05/04 06:57:36;;;;;;;107.35;26.02;;;;;;;;;;4956606;28;20663;-68
2022/05/04 07:00:04;;;;;;;119.53;32.35;;;;;;;;;;4959412;28;20225;-68
2022/05/04 07:02:30;;;;;;;101.72;26.02;;;;;;;;;;4959199;28;20215;-69
2022/05/04 07:04:56;;;;;;;100.20;28.30;;;;;;;;;;4952624;28;20227;-68
2022/05/04 07:07:22;;;;;;;108.65;27.90;;;;;;;;;;4924124;28;20214;-70
2022/05/04 07:09:48;;;;;;;130.35;32.40;;;;;;;;;;4952563;28;20281;-70
2022/05/04 07:12:14;;;;;;;165.40;41.30;;;;;;;;;;4953337;28;20269;-69
2022/05/04 07:14:40;;;;;;;164.55;41.78;;;;;;;;;;4930431;28;20297;-70
2022/05/04 07:17:06;;;;;;;164.85;44.78;;;;;;;;;;4951692;28;20548;-70
2022/05/04 07:19:32;;;;;;;188.95;46.45;;;;;;;;;;4950785;28;20210;-67
2022/05/04 07:21:58;;;;;;;170.93;43.83;;;;;;;;;;4941591;28;20202;-67
2022/05/04 07:24:24;;;;;;;102.72;25.05;;;;;;;;;;4958736;28;20222;-68
2022/05/04 07:26:50;;;;;;;188.50;44.90;;;;;;;;;;4952942;28;22258;-68
2022/05/04 07:29:16;;;;;;;181.20;46.75;;;;;;;;;;4950902;28;20564;-68
2022/05/04 07:31:44;;;;;;;99.68;27.13;;;;;;;;;;4950923;28;20227;-68
2022/05/04 07:34:11;;;;;;;149.43;39.65;;;;;;;;;;4947254;28;20198;-68
2022/05/04 07:36:37;;;;;;;79.28;21.00;;;;;;;;;;4951576;28;20214;-69
2022/05/04 07:39:03;;;;;;;88.43;23.45;;;;;;;;;;4949033;28;20221;-69
2022/05/04 07:44:13;;;;;;;72.35;22.35;;;;;;;;;;4952947;28;20216;-69
2022/05/04 07:46:41;;;;;;;126.90;35.92;;;;;;;;;;4959021;28;20209;-70
2022/05/04 07:49:07;;;;;;;115.82;35.55;;;;;;;;;;4961948;28;20189;-70
2022/05/04 07:51:33;;;;;;;150.55;41.63;;;;;;;;;;4957308;28;20182;-70
2022/05/04 07:53:59;;;;;;;170.07;51.83;;;;;;;;;;4952306;28;20593;-69
2022/05/04 07:56:25;;;;;;;135.25;41.45;;;;;;;;;;4952062;28;20325;-73
2022/05/04 07:58:51;;;;;;;173.95;52.80;;;;;;;;;;4946164;28;20221;-69
2022/05/04 08:04:17;;;;;;;107.97;43.55;;;;;;;;;;4952276;28;20361;-69
2022/05/04 08:06:43;;;;;;;78.28;37.05;;;;;;;;;;4958694;28;20174;-69
2022/05/04 08:09:09;;;;;;;164.25;67.30;;;;;;;;;;4955830;28;20687;-69
2022/05/04 08:11:35;;;;;;;124.97;47.10;;;;;;;;;;4949909;28;20214;-69
2022/05/04 08:14:01;;;;;;;151.10;64.72;;;;;;;;;;4945927;28;20207;-71
2022/05/04 08:16:27;;;;;;;141.95;57.60;;;;;;;;;;4956640;28;20297;-69
2022/05/04 08:18:53;;;;;;;130.25;55.20;;;;;;;;;;4955319;28;20560;-69
2022/05/04 08:21:20;;;;;;;136.88;60.30;;;;;;;;;;4957105;28;20210;-69
2022/05/04 08:23:46;;;;;;;90.70;43.88;;;;;;;;;;4957772;28;20252;-70
2022/05/04 08:26:12;;;;;;;127.25;54.20;;;;;;;;;;4952671;28;20225;-71
2022/05/04 08:28:38;;;;;;;76.28;41.05;;;;;;;;;;4953483;28;20218;-71
2022/05/04 08:31:05;;;;;;;198.30;81.18;;;;;;;;;;4947925;28;20193;-73
2022/05/04 08:33:31;;;;;;;152.32;61.28;;;;;;;;;;4952884;28;20206;-70
2022/05/04 08:35:57;;;;;;;119.35;56.88;;;;;;;;;;4956903;28;20582;-70
2022/05/04 08:38:23;;;;;;;112.75;55.25;;;;;;;;;;4950037;28;22212;-71
2022/05/04 08:40:51;;;;;;;157.57;63.45;;;;;;;;;;4949550;28;20214;-70
2022/05/04 08:43:18;;;;;;;171.73;67.47;;;;;;;;;;4949385;28;20617;-69
2022/05/04 08:45:44;;;;;;;108.95;48.10;;;;;;;;;;4956488;28;20198;-70
2022/05/04 08:48:10;;;;;;;210.50;77.15;;;;;;;;;;4955306;28;20250;-70
2022/05/04 08:50:40;;;;;;;107.47;44.88;;;;;;;;;;4953938;28;20637;-70
2022/05/04 08:53:07;;;;;;;128.35;48.97;;;;;;;;;;4954789;28;20230;-69
2022/05/04 08:55:34;;;;;;;167.30;61.30;;;;;;;;;;4953272;28;20226;-68
2022/05/04 08:58:00;;;;;;;121.07;48.95;;;;;;;;;;4952950;28;20197;-67
2022/05/04 09:00:26;;;;;;;163.77;54.00;;;;;;;;;;4952355;28;20234;-68
2022/05/04 09:02:52;;;;;;;136.43;49.55;;;;;;;;;;4955771;28;20939;-68
2022/05/04 09:05:23;;;;;;;133.10;45.55;;;;;;;;;;4947815;28;20297;-69
2022/05/04 09:07:50;;;;;;;79.78;30.75;;;;;;;;;;4959149;28;20215;-68
2022/05/04 09:10:17;;;;;;;144.18;48.35;;;;;;;;;;4958495;28;20816;-69
2022/05/04 09:12:44;;;;;;;98.78;37.38;;;;;;;;;;4952433;28;20699;-68
2022/05/04 09:15:18;;;;;;;130.07;46.20;;;;;;;;;;4961541;28;20293;-68
2022/05/04 09:17:43;;;;;;;173.90;58.00;;;;;;;;;;4953789;28;20260;-68
2022/05/04 09:22:54;;;;;;;133.68;43.72;;;;;;;;;;4954230;28;21130;-68
2022/05/04 09:25:20;;;;;;;95.82;32.72;;;;;;;;;;4960537;28;20250;-71
2022/05/04 09:27:47;;;;;;;69.65;29.35;;;;;;;;;;4956646;28;20178;-70
2022/05/04 09:30:13;;;;;;;156.77;55.03;;;;;;;;;;4961284;28;20225;-70
2022/05/04 09:32:40;;;;;;;106.05;39.72;;;;;;;;;;4956222;28;20313;-69
2022/05/04 09:35:13;;;;;;;160.27;56.58;;;;;;;;;;4949919;28;20669;-68
2022/05/04 09:45:57;;;;;;;173.07;60.30;;;;;;;;;;4956678;28;20434;-69
2022/05/04 09:48:30;;;;;;;117.97;47.17;;;;;;;;;;4940166;28;20491;-69
2022/05/04 09:51:06;;;;;;;155.68;58.63;;;;;;;;;;4954258;28;21456;-71
2022/05/04 09:53:33;;;;;;;183.50;64.22;;;;;;;;;;4950681;28;20240;-69
2022/05/04 09:55:59;;;;;;;169.82;64.90;;;;;;;;;;4952138;28;20218;-69
2022/05/04 09:58:26;;;;;;;107.95;43.78;;;;;;;;;;4962954;28;20226;-69
2022/05/04 10:00:53;;;;;;;81.78;40.80;;;;;;;;;;4957485;28;20175;-69
2022/05/04 10:03:20;;;;;;;82.90;39.85;;;;;;;;;;4963140;28;20290;-70
2022/05/04 10:05:46;;;;;;;131.90;54.85;;;;;;;;;;4961605;28;20671;-69
2022/05/04 10:08:13;;;;;;;72.30;33.33;;;;;;;;;;4956443;28;20764;-69
2022/05/04 10:10:40;;;;;;;78.32;40.22;;;;;;;;;;4963707;28;20222;-69
2022/05/04 10:13:06;;;;;;;150.05;64.57;;;;;;;;;;4957633;28;20209;-69
2022/05/04 10:15:34;;;;;;;107.78;55.50;;;;;;;;;;4963515;28;20218;-70
2022/05/04 10:18:12;;;;;;;135.45;71.80;;;;;;;;;;4950481;28;20202;-69
2022/05/04 10:20:39;;;;;;;132.85;60.65;;;;;;;;;;4961988;28;20218;-70
2022/05/04 10:23:12;;;;;;;154.00;68.10;;;;;;;;;;4961007;28;20393;-69
2022/05/04 10:25:38;;;;;;;120.22;64.80;;;;;;;;;;4967553;28;20807;-69
2022/05/04 10:28:06;;;;;;;134.60;76.90;;;;;;;;;;4960684;28;20201;-69
2022/05/04 10:30:34;;;;;;;148.65;79.65;;;;;;;;;;4960635;28;20187;-69
2022/05/04 10:33:10;;;;;;;171.18;94.20;;;;;;;;;;4959673;28;20618;-69
2022/05/04 10:35:42;;;;;;;129.48;93.82;;;;;;;;;;4964604;28;20225;-70
2022/05/04 10:38:10;;;;;;;156.05;106.00;;;;;;;;;;4962258;28;20581;-69
2022/05/04 10:40:47;;;;;;;93.30;83.22;;;;;;;;;;4966329;28;20265;-69
2022/05/04 10:43:17;;;;;;;129.43;84.72;;;;;;;;;;4965279;28;20202;-69
2022/05/04 10:45:44;;;;;;;134.02;82.93;;;;;;;;;;4964648;28;20236;-69
2022/05/04 10:48:10;;;;;;;137.25;84.82;;;;;;;;;;4965004;28;20248;-70
2022/05/04 10:50:49;;;;;;;129.15;74.30;;;;;;;;;;4965943;28;20219;-69
2022/05/04 10:53:24;;;;;;;81.57;64.90;;;;;;;;;;4959459;28;20214;-69
2022/05/04 10:56:09;;;;;;;105.43;68.38;;;;;;;;;;4962704;28;20213;-69
2022/05/04 10:58:46;;;;;;;82.38;59.55;;;;;;;;;;4965255;28;20250;-69
2022/05/04 11:01:17;;;;;;;195.32;93.13;;;;;;;;;;4956455;28;21097;-70
2022/05/04 11:03:55;;;;;;;134.52;72.32;;;;;;;;;;4948334;28;20267;-69
2022/05/04 11:06:25;;;;;;;158.95;79.75;;;;;;;;;;4950249;28;20206;-68
2022/05/04 11:08:52;;;;;;;229.82;103.60;;;;;;;;;;4945660;28;20214;-68
2022/05/04 11:11:21;;;;;;;101.07;64.78;;;;;;;;;;4956573;28;20222;-68
2022/05/04 11:13:47;;;;;;;120.78;75.63;;;;;;;;;;4935761;28;20215;-72
2022/05/04 11:16:13;;;;;;;160.60;82.43;;;;;;;;;;4943619;28;20665;-70
2022/05/04 11:18:39;;;;;;;178.23;100.80;;;;;;;;;;4951258;28;20277;-69
2022/05/04 11:21:10;;;;;;;127.10;84.82;;;;;;;;;;4960013;28;20210;-69
2022/05/04 11:23:38;;;;;;;153.48;91.25;;;;;;;;;;4955874;28;20226;-68
2022/05/04 11:26:03;;;;;;;190.05;110.50;;;;;;;;;;4954645;28;20405;-69
2022/05/04 11:28:29;;;;;;;109.50;85.90;;;;;;;;;;4960967;28;20240;-68
2022/05/04 11:30:56;;;;;;;177.10;106.85;;;;;;;;;;4955036;28;20174;-68
2022/05/04 11:33:23;;;;;;;100.28;82.82;;;;;;;;;;4956397;28;20932;-68
2022/05/04 11:35:56;;;;;;;166.35;100.75;;;;;;;;;;4952865;28;20221;-69
2022/05/04 11:38:22;;;;;;;123.90;86.93;;;;;;;;;;4948040;28;20214;-68
2022/05/04 11:40:49;;;;;;;158.73;85.85;;;;;;;;;;4953444;28;20206;-70
2022/05/04 11:43:27;;;;;;;147.02;81.47;;;;;;;;;;4953806;28;20302;-70
2022/05/04 11:45:54;;;;;;;140.93;77.65;;;;;;;;;;4957644;28;20187;-69
2022/05/04 11:48:21;;;;;;;140.45;70.30;;;;;;;;;;4952100;28;20237;-69
2022/05/04 11:50:47;;;;;;;62.72;54.85;;;;;;;;;;4942847;28;20213;-70
2022/05/04 11:53:13;;;;;;;125.88;68.05;;;;;;;;;;4930290;28;20800;-67
2022/05/04 11:55:39;;;;;;;101.13;54.42;;;;;;;;;;4956628;28;20296;-67
2022/05/04 11:58:10;;;;;;;156.15;85.50;;;;;;;;;;4949755;28;20245;-67
2022/05/04 12:00:36;;;;;;;140.02;69.97;;;;;;;;;;4956691;28;20186;-70
2022/05/04 12:03:02;;;;;;;191.90;89.03;;;;;;;;;;4948049;28;20295;-66
2022/05/04 12:05:29;;;;;;;106.97;68.25;;;;;;;;;;4960139;28;20316;-66
2022/05/04 12:07:55;;;;;;;130.25;77.35;;;;;;;;;;4954693;28;20219;-67
2022/05/04 12:10:21;;;;;;;109.15;72.20;;;;;;;;;;4946516;28;20218;-66
2022/05/04 12:12:47;;;;;;;125.20;75.07;;;;;;;;;;4967887;28;20285;-66
2022/05/04 12:15:16;;;;;;;137.40;81.78;;;;;;;;;;4965278;28;20302;-66
2022/05/04 12:17:42;;;;;;;113.95;79.20;;;;;;;;;;4969320;28;20577;-66
2022/05/04 12:20:08;;;;;;;146.48;87.13;;;;;;;;;;4964143;28;20229;-66
2022/05/04 12:22:34;;;;;;;134.90;87.95;;;;;;;;;;4965290;28;20226;-66
2022/05/04 12:25:01;;;;;;;163.68;105.10;;;;;;;;;;4968210;28;20197;-65
2022/05/04 12:27:27;;;;;;;105.32;81.32;;;;;;;;;;4966516;28;20213;-66
2022/05/04 12:35:29;;;;;;;127.95;114.65;;;;;;;;;;4962901;28;20709;-66
2022/05/04 12:37:56;;;;;;;130.82;115.25;;;;;;;;;;4967236;28;20249;-66
2022/05/04 12:40:23;;;;;;;138.43;119.68;;;;;;;;;;4967733;28;20704;-66
2022/05/04 12:42:49;;;;;;;113.30;100.70;;;;;;;;;;4969366;28;20209;-66
2022/05/04 12:45:18;;;;;;;138.43;110.88;;;;;;;;;;4944644;28;20218;-66
2022/05/04 12:47:44;;;;;;;123.30;108.80;;;;;;;;;;4965166;28;20212;-67
2022/05/04 12:50:10;;;;;;;145.93;113.97;;;;;;;;;;4969522;28;20206;-67
2022/05/04 12:52:38;;;;;;;137.48;105.20;;;;;;;;;;4965633;28;20687;-66
2022/05/04 12:55:04;;;;;;;153.05;112.13;;;;;;;;;;4961349;28;20671;-65
2022/05/04 12:57:30;;;;;;;125.93;109.50;;;;;;;;;;4950184;28;20688;-66
2022/05/04 12:59:56;;;;;;;150.70;124.97;;;;;;;;;;4966496;28;20218;-66
2022/05/04 13:02:22;;;;;;;126.88;113.32;;;;;;;;;;4962344;28;20224;-66
2022/05/04 13:04:48;;;;;;;145.95;127.25;;;;;;;;;;4967311;28;20220;-67
2022/05/04 13:07:14;;;;;;;162.95;143.70;;;;;;;;;;4962611;28;20195;-66
2022/05/04 13:09:42;;;;;;;192.85;166.20;;;;;;;;;;4965050;28;20190;-67
2022/05/04 13:12:11;;;;;;;236.82;194.13;;;;;;;;;;4961866;28;20224;-67
2022/05/04 13:14:40;;;;;;;190.30;169.73;;;;;;;;;;4962580;28;20708;-67
2022/05/04 13:17:07;;;;;;;200.25;169.80;;;;;;;;;;4942083;28;20321;-69
2022/05/04 13:19:34;;;;;;;220.60;179.45;;;;;;;;;;4956468;28;20763;-69
2022/05/04 13:22:00;;;;;;;221.63;178.55;;;;;;;;;;4953266;28;20237;-68
2022/05/04 13:24:26;;;;;;;251.35;177.73;;;;;;;;;;4958078;28;20195;-69
2022/05/04 13:26:52;;;;;;;174.07;155.15;;;;;;;;;;4933624;28;20207;-69
2022/05/04 13:29:18;;;;;;;186.50;166.23;;;;;;;;;;4955693;28;20217;-68
2022/05/04 13:31:44;;;;;;;276.98;233.60;;;;;;;;;;4950647;28;20217;-69
2022/05/04 13:34:10;;;;;;;374.88;282.33;;;;;;;;;;4956870;28;20264;-68
2022/05/04 13:36:36;;;;;;;302.25;247.13;;;;;;;;;;4936850;28;20302;-68
2022/05/04 13:39:02;;;;;;;315.10;255.95;;;;;;;;;;4956850;28;20214;-68
2022/05/04 13:41:30;;;;;;;325.85;257.80;;;;;;;;;;4956965;28;20202;-69
2022/05/04 13:43:57;;;;;;;309.10;244.45;;;;;;;;;;4956524;28;20296;-69
2022/05/04 13:46:24;;;;;;;369.85;288.48;;;;;;;;;;4955092;28;20225;-69
2022/05/04 13:48:50;;;;;;;355.83;278.67;;;;;;;;;;4960795;28;20653;-69
2022/05/04 13:54:01;;;;;;;419.63;308.70;;;;;;;;;;4947319;28;20240;-66
2022/05/04 13:56:27;;;;;;;338.75;260.55;;;;;;;;;;4950668;28;21146;-66
2022/05/04 13:58:53;;;;;;;331.65;259.25;;;;;;;;;;4954023;28;21283;-68
2022/05/04 14:01:20;;;;;;;309.65;253.73;;;;;;;;;;4967848;28;20222;-68
2022/05/04 14:03:46;;;;;;;341.55;266.23;;;;;;;;;;4949647;28;20217;-69
2022/05/04 14:06:12;;;;;;;397.33;293.55;;;;;;;;;;4954245;28;20214;-68
2022/05/04 14:08:38;;;;;;;393.58;301.20;;;;;;;;;;4947280;28;20217;-69
2022/05/04 14:11:04;;;;;;;439.77;325.30;;;;;;;;;;4953135;28;20222;-68
2022/05/04 14:13:30;;;;;;;368.25;298.77;;;;;;;;;;4953225;28;20688;-68
2022/05/04 14:15:58;;;;;;;432.05;337.70;;;;;;;;;;4951632;28;20210;-69
2022/05/04 14:18:25;;;;;;;362.60;303.70;;;;;;;;;;4954069;28;20211;-69
2022/05/04 14:20:52;;;;;;;384.33;324.83;;;;;;;;;;4955708;28;20324;-69
2022/05/04 14:23:18;;;;;;;379.27;336.15;;;;;;;;;;4951914;28;20218;-69
2022/05/04 14:25:44;;;;;;;388.75;345.60;;;;;;;;;;4951430;28;20230;-69
2022/05/04 14:28:10;;;;;;;462.45;378.45;;;;;;;;;;4953744;28;20198;-70
2022/05/04 14:30:37;;;;;;;429.67;369.38;;;;;;;;;;4952480;28;20213;-69
2022/05/04 14:33:03;;;;;;;465.45;392.92;;;;;;;;;;4945948;28;20225;-69
2022/05/04 14:35:29;;;;;;;418.17;371.45;;;;;;;;;;4957783;28;20615;-69
2022/05/04 14:37:55;;;;;;;415.10;371.13;;;;;;;;;;4957813;28;20214;-69
2022/05/04 14:40:23;;;;;;;436.50;389.48;;;;;;;;;;4951856;28;20221;-69
2022/05/04 14:42:51;;;;;;;427.45;383.02;;;;;;;;;;4955272;28;20201;-71
2022/05/04 14:45:17;;;;;;;433.05;388.85;;;;;;;;;;4956578;28;20229;-69